< Typhoon 201604 2016 Season Typhoon 201606 >
Typhoon 201605 (OMAIS)
General InformationTrack Information on Google MapsDetailed Wind InformationForecast History on Google MapsAccess Analytics MapList of All Images || NewsDisaster Info.WeblogTrackbackTyphoon FrontTwiphoonTyphoon Now!Typhoon ImaginationDisaster Info. XMLResourceGoogle EarthGE AnimationAtom FeedGeoJSON
Detalied Best Track (Time Zone = UTC)
Year Month Day Hour Lat. Long. Pressure (hPa) Wind (kt) Class Image Chart
2016 8 2 12 16.7 148.8 1004 0 2 Image Chart
2016 8 2 18 16.7 148.2 1002 0 2 Image Chart
2016 8 3 00 16.9 147.8 1004 0 2 Image Chart
2016 8 3 06 17.6 147.8 1002 0 2 Image Chart
2016 8 3 12 17.8 148.1 1002 0 2 Image Chart
2016 8 3 18 18.1 148.3 1000 0 2 Image Chart
2016 8 4 00 18.4 148.5 998 35 3 Image Chart
2016 8 4 06 18.8 148.5 998 35 3 Image Chart
2016 8 4 12 19.2 148.5 998 35 3 Image Chart
2016 8 4 18 19.8 148.4 996 35 3 Image Chart
2016 8 5 00 20.7 148.1 992 40 3 Image Chart
2016 8 5 06 21.7 147.9 990 45 3 Image Chart
2016 8 5 12 22.5 147.8 985 50 4 Image Chart
2016 8 5 18 23.3 147.8 980 55 4 Image Chart
2016 8 6 00 24.2 147.8 980 55 4 Image Chart
2016 8 6 06 24.9 147.7 975 60 4 Image Chart
2016 8 6 12 26.1 147.7 975 60 4 Image Chart
2016 8 6 18 27.3 147.5 975 60 4 Image Chart
2016 8 7 00 28.6 147.3 975 60 4 Image Chart
2016 8 7 06 30.0 146.9 975 60 4 Image Chart
2016 8 7 12 31.3 146.3 980 55 4 Image Chart
2016 8 7 18 32.5 145.3 980 55 4 Image Chart
2016 8 8 00 33.5 144.5 980 55 4 Image Chart
2016 8 8 06 34.5 144.3 980 50 4 Image Chart
2016 8 8 12 35.7 144.5 980 50 4 Image Chart
2016 8 8 18 36.8 145.1 980 50 4 Image Chart
2016 8 9 00 37.9 145.9 980 50 4 Image Chart
2016 8 9 06 40.2 147.4 980 50 4 Image Chart
2016 8 9 12 42.0 148.8 985 45 3 Image Chart
2016 8 9 18 44.1 151.7 984 0 6 Image Chart
2016 8 10 00 46.2 152.5 988 0 6 Image Chart
2016 8 10 06 48.1 156.2 988 0 6 Image Chart
2016 8 10 12 50.0 159.8 986 0 6 Image Chart
2016 8 10 18 51.9 162.8 986 0 6 Image Chart
2016 8 11 00 53.5 165.5 984 0 6 Image Chart
2016 8 11 06 54.9 169.1 984 0 6 Image Chart
2016 8 11 12 55.6 172.5 984 0 6 Image Chart
2016 8 11 18 56.1 174.6 984 0 6 Image Chart
2016 8 12 00 56.3 177.1 986 0 6 Image Chart
2016 8 12 06 56.4 181.8 988 0 6 Image Chart
Japan Meteorological Agency Best Track Data | Correction Date : 2016-09-15
< Typhoon 201604 2016 Season Typhoon 201606 >

Help